ETSH

Holzdorf Airport

Germany
METAR ETSH 230820Z 08010KT 9999 FEW100 SCT290 23/07 Q1020 BLU+BLU+
Observed Flight Rules
May-23 @ 08:20 UTC (11 minutes ago) Visual Flight Rules
Wind Visibility Clouds
80° at 10 knots 10,000+ meters
  • Few at 10,000' AGL
  • Scattered at 29,000' AGL
Temperatures Readings
Current 23°C / 73°F
Dewpoint 7°C / 45°F
Humidity 36%
Altimeter 30.12" Hg
Pressure 1020 hPa
Elevation 79
METAR ETSH 230820Z 08010KT 9999 FEW100 SCT290 23/07 Q1020 BLU+BLU+
Observed Flight Rules
May-23 @ 08:20 UTC
(11 minutes ago)
VFR
Wind Visibility
80° at 10 knots 10,000+ meters
Clouds
  • Few at 10,000' AGL
  • Scattered at 29,000' AGL
Temperature Dewpoint
23°C / 73°F 7°C / 45°F
Humidity Altimeter Pressure
36% 30.12" Hg 1020 hPa